Time;durP1;ratioP1;P1;durP2;ratioP2;P2;SDS_P1;SDS_P2;PMS_P1;PMS_P2;Temp;Humidity;BMP_temperature;BMP_pressure;BME280_temperature;BME280_humidity;BME280_pressure;Samples;Min_cycle;Max_cycle;Signal;HPM_P1;HPM_P2
2023/01/02 00:01:43;;;;;;;0.93;0.40;;;12.40;83.70;;;;;;5048837;28;20041;-76
2023/01/02 00:04:09;;;;;;;0.85;0.20;;;12.40;83.00;;;;;;5026138;28;20021;-77
2023/01/02 00:06:37;;;;;;;1.92;0.47;;;12.40;82.50;;;;;;5067015;28;20488;-76
2023/01/02 00:09:04;;;;;;;0.40;0.30;;;12.40;82.60;;;;;;5034574;28;20068;-77
2023/01/02 00:11:31;;;;;;;0.45;0.40;;;12.40;82.80;;;;;;5036040;28;20492;-77
2023/01/02 00:13:57;;;;;;;0.70;0.40;;;12.40;83.00;;;;;;5023141;28;20072;-76
2023/01/02 00:16:23;;;;;;;1.65;0.30;;;12.40;82.50;;;;;;5017714;28;20185;-75
2023/01/02 00:18:49;;;;;;;0.80;0.28;;;12.40;81.90;;;;;;5022531;28;20057;-77
2023/01/02 00:21:15;;;;;;;0.65;0.20;;;12.40;81.30;;;;;;5034569;28;20040;-76
2023/01/02 00:23:41;;;;;;;0.30;0.30;;;12.30;80.80;;;;;;5034493;28;20058;-77
2023/01/02 00:26:08;;;;;;;0.68;0.30;;;12.30;81.00;;;;;;5023467;28;20044;-76
2023/01/02 00:28:35;;;;;;;0.28;0.28;;;12.30;81.20;;;;;;5033738;28;20136;-75
2023/01/02 00:31:09;;;;;;;0.20;0.20;;;12.30;81.20;;;;;;5040223;28;20033;-76
2023/01/02 00:33:36;;;;;;;1.17;0.30;;;12.30;81.10;;;;;;5041176;28;20124;-77
2023/01/02 00:36:12;;;;;;;0.82;0.47;;;12.30;80.90;;;;;;5034302;28;20174;-78
2023/01/02 00:38:39;;;;;;;0.70;0.30;;;12.20;80.70;;;;;;5039016;28;20384;-78
2023/01/02 00:41:06;;;;;;;0.20;0.20;;;12.20;80.50;;;;;;5067635;28;20504;-75
2023/01/02 00:43:32;;;;;;;0.20;0.20;;;12.20;80.70;;;;;;5036213;28;20028;-77
2023/01/02 00:45:58;;;;;;;0.20;0.20;;;12.20;81.10;;;;;;5035427;28;20108;-76
2023/01/02 00:48:24;;;;;;;1.30;0.20;;;12.20;80.80;;;;;;5034770;28;20036;-75
2023/01/02 00:50:50;;;;;;;0.20;0.20;;;12.20;80.70;;;;;;5068328;28;20039;-77
2023/01/02 00:53:16;;;;;;;0.85;0.20;;;12.20;80.70;;;;;;5035350;28;20029;-79
2023/01/02 00:55:45;;;;;;;0.43;0.25;;;12.20;80.10;;;;;;5049725;28;20094;-78
2023/01/02 00:58:12;;;;;;;0.55;0.30;;;12.20;80.10;;;;;;5012973;28;20114;-76
2023/01/02 01:00:38;;;;;;;0.73;0.20;;;12.20;80.70;;;;;;5037553;28;20029;-77
2023/01/02 01:03:04;;;;;;;0.40;0.10;;;12.20;81.20;;;;;;5040154;28;20064;-75
2023/01/02 01:05:30;;;;;;;0.30;0.20;;;12.20;80.80;;;;;;5020048;28;20403;-75
2023/01/02 01:07:57;;;;;;;0.20;0.10;;;12.20;80.20;;;;;;5033939;28;20036;-74
2023/01/02 01:10:24;;;;;;;1.00;0.30;;;12.10;80.00;;;;;;5034676;28;20033;-73
2023/01/02 01:12:51;;;;;;;0.20;0.20;;;12.20;80.10;;;;;;5034199;28;20059;-76
2023/01/02 01:15:17;;;;;;;0.75;0.25;;;12.10;80.20;;;;;;5033561;28;20037;-74
2023/01/02 01:17:44;;;;;;;0.50;0.30;;;12.10;79.90;;;;;;5033865;28;20088;-75
2023/01/02 01:20:10;;;;;;;0.17;0.10;;;12.10;79.80;;;;;;5033802;28;20556;-76
2023/01/02 01:22:36;;;;;;;2.42;0.28;;;12.10;79.80;;;;;;5038826;28;20030;-76
2023/01/02 01:25:02;;;;;;;0.10;0.10;;;12.10;79.70;;;;;;5034206;28;20504;-76
2023/01/02 01:27:28;;;;;;;0.20;0.20;;;12.10;79.60;;;;;;5001670;28;20945;-76
2023/01/02 01:29:54;;;;;;;0.45;0.20;;;12.10;79.50;;;;;;5038572;28;20037;-76
2023/01/02 01:32:20;;;;;;;0.32;0.20;;;12.00;79.60;;;;;;5041427;28;20040;-78
2023/01/02 01:34:46;;;;;;;0.15;0.15;;;12.00;80.10;;;;;;5029612;28;20361;-76
2023/01/02 01:37:12;;;;;;;0.30;0.30;;;12.00;80.70;;;;;;5045932;28;20047;-77
2023/01/02 01:39:38;;;;;;;0.55;0.20;;;12.00;80.20;;;;;;5045119;28;20040;-75
2023/01/02 01:42:04;;;;;;;0.77;0.20;;;12.00;79.90;;;;;;5022922;28;20415;-75
2023/01/02 01:44:42;;;;;;;0.20;0.20;;;12.00;80.20;;;;;;5045663;28;20396;-74
2023/01/02 01:47:36;;;;;;;0.20;0.20;;;12.00;79.80;;;;;;5039759;28;20041;-75
2023/01/02 01:50:05;;;;;;;0.30;0.20;;;12.00;79.80;;;;;;5073756;28;20057;-76
2023/01/02 01:52:34;;;;;;;0.13;0.13;;;12.00;80.00;;;;;;5039762;28;20120;-76
2023/01/02 01:55:07;;;;;;;0.20;0.20;;;12.00;79.80;;;;;;5057706;28;20025;-77
2023/01/02 01:57:40;;;;;;;0.30;0.10;;;12.00;80.00;;;;;;5042280;28;20388;-76
2023/01/02 02:00:07;;;;;;;0.30;0.20;;;12.00;79.80;;;;;;5041348;28;20042;-77
2023/01/02 02:02:33;;;;;;;0.55;0.30;;;12.00;80.00;;;;;;5039710;28;20060;-76
2023/01/02 02:05:02;;;;;;;0.20;0.20;;;12.00;80.40;;;;;;5041086;28;20087;-77
2023/01/02 02:07:29;;;;;;;0.30;0.20;;;12.00;80.80;;;;;;5041274;28;20036;-77
2023/01/02 02:10:09;;;;;;;1.95;0.28;;;12.00;81.10;;;;;;5034711;28;20041;-77
2023/01/02 02:12:35;;;;;;;0.85;0.30;;;12.00;81.00;;;;;;5042292;28;20129;-77
2023/01/02 02:15:02;;;;;;;0.57;0.47;;;12.00;81.10;;;;;;5041828;28;20507;-77
2023/01/02 02:18:14;;;;;;;0.43;0.40;;;12.10;81.40;;;;;;5014153;28;20389;-77
2023/01/02 02:21:03;;;;;;;0.30;0.30;;;12.10;81.60;;;;;;5037601;28;20048;-77
2023/01/02 02:23:35;;;;;;;1.27;0.65;;;12.10;81.60;;;;;;5036662;28;20092;-77
2023/01/02 02:26:38;;;;;;;0.20;0.20;;;12.10;81.30;;;;;;5054351;28;20037;-78
2023/01/02 02:29:37;;;;;;;0.45;0.28;;;12.10;81.60;;;;;;5037035;28;20053;-77
2023/01/02 02:32:24;;;;;;;1.13;0.22;;;12.10;81.90;;;;;;5020913;28;20397;-76
2023/01/02 02:35:14;;;;;;;0.47;0.20;;;12.10;82.10;;;;;;5054076;28;20366;-77
2023/01/02 02:38:07;;;;;;;0.22;0.22;;;12.10;81.50;;;;;;5022790;28;20421;-77
2023/01/02 02:41:03;;;;;;;1.55;0.35;;;12.10;80.80;;;;;;5005909;28;20075;-77
2023/01/02 02:43:57;;;;;;;0.28;0.20;;;12.10;80.90;;;;;;5065243;28;20067;-77
2023/01/02 02:46:45;;;;;;;0.10;0.10;;;12.10;81.40;;;;;;5036812;28;20032;-78
2023/01/02 02:49:40;;;;;;;0.85;0.20;;;12.10;81.70;;;;;;5035806;28;20038;-78
2023/01/02 02:52:21;;;;;;;0.57;0.20;;;12.10;82.00;;;;;;5000959;28;20041;-78
2023/01/02 02:54:50;;;;;;;1.02;0.10;;;12.10;82.70;;;;;;5036775;28;20030;-78
2023/01/02 02:57:16;;;;;;;0.60;0.10;;;12.10;82.50;;;;;;5052688;28;20609;-78
2023/01/02 02:59:42;;;;;;;0.60;0.20;;;12.20;82.10;;;;;;5035471;28;20063;-77
2023/01/02 03:02:13;;;;;;;0.20;0.20;;;12.20;82.00;;;;;;5035911;28;20060;-77
2023/01/02 03:04:39;;;;;;;1.02;0.52;;;12.10;81.70;;;;;;5038717;28;20041;-77
2023/01/02 03:07:23;;;;;;;0.82;0.50;;;12.20;81.10;;;;;;5037101;28;20048;-78
2023/01/02 03:10:17;;;;;;;0.47;0.20;;;12.20;80.90;;;;;;5070208;28;20025;-78
2023/01/02 03:13:32;;;;;;;0.63;0.20;;;12.20;80.20;;;;;;5031968;28;20040;-78
2023/01/02 03:16:09;;;;;;;0.75;0.30;;;12.10;79.10;;;;;;5030991;28;20045;-77
2023/01/02 03:18:40;;;;;;;0.15;0.13;;;12.10;78.40;;;;;;5018303;28;20057;-79
2023/01/02 03:21:20;;;;;;;0.20;0.10;;;12.10;77.80;;;;;;5020041;28;20029;-79
2023/01/02 03:23:48;;;;;;;0.55;0.10;;;12.10;76.90;;;;;;5036510;28;20044;-79
2023/01/02 03:26:20;;;;;;;0.75;0.17;;;12.00;76.00;;;;;;5017674;28;20033;-80
2023/01/02 03:28:49;;;;;;;0.43;0.20;;;12.00;75.80;;;;;;5018133;28;20085;-78
2023/01/02 03:31:18;;;;;;;0.93;0.10;;;11.90;75.10;;;;;;5017626;28;20136;-78
2023/01/02 03:33:50;;;;;;;0.10;0.10;;;11.90;74.60;;;;;;5018545;28;20057;-78
2023/01/02 03:36:21;;;;;;;0.10;0.10;;;11.80;74.30;;;;;;5035126;28;20043;-79
2023/01/02 03:39:11;;;;;;;0.35;0.17;;;11.80;74.50;;;;;;5034639;28;20041;-78
2023/01/02 03:41:56;;;;;;;0.25;0.10;;;11.80;74.50;;;;;;5034968;28;21128;-78
2023/01/02 03:44:27;;;;;;;1.55;0.20;;;11.70;74.00;;;;;;5016159;28;20028;-77
2023/01/02 03:47:16;;;;;;;1.27;0.20;;;11.70;73.90;;;;;;5036651;28;20056;-78
2023/01/02 03:49:46;;;;;;;0.28;0.28;;;11.70;73.30;;;;;;5035494;28;20396;-79
2023/01/02 03:52:13;;;;;;;0.10;0.10;;;11.60;73.00;;;;;;5034882;28;20033;-79
2023/01/02 03:54:39;;;;;;;0.30;0.10;;;11.50;73.40;;;;;;5034371;28;20164;-78
2023/01/02 03:57:08;;;;;;;0.10;0.10;;;11.50;74.00;;;;;;5035626;28;20057;-78
2023/01/02 03:59:34;;;;;;;0.10;0.10;;;11.50;73.80;;;;;;5052511;28;20480;-77
2023/01/02 04:02:12;;;;;;;0.30;0.30;;;11.50;73.80;;;;;;5036895;28;20136;-79
2023/01/02 04:04:50;;;;;;;0.10;0.10;;;11.50;73.50;;;;;;5030669;28;20064;-78
2023/01/02 04:07:28;;;;;;;0.95;0.20;;;11.40;73.10;;;;;;5037342;28;20404;-78
2023/01/02 04:09:55;;;;;;;0.17;0.17;;;11.30;73.20;;;;;;5070030;28;20033;-78
2023/01/02 04:12:23;;;;;;;0.38;0.25;;;11.40;73.80;;;;;;5067932;28;20037;-79
2023/01/02 04:15:02;;;;;;;0.17;0.10;;;11.30;73.60;;;;;;5018436;28;20040;-78
2023/01/02 04:17:34;;;;;;;0.10;0.10;;;11.30;73.20;;;;;;5035811;28;20133;-77
2023/01/02 04:20:04;;;;;;;0.47;0.25;;;11.30;73.40;;;;;;5054059;28;20037;-77
2023/01/02 04:23:00;;;;;;;0.90;0.10;;;11.20;72.80;;;;;;5038570;28;20041;-77
2023/01/02 04:25:32;;;;;;;;;;;11.20;72.50;;;;;;5033358;28;20049;-76
2023/01/02 04:28:27;;;;;;;0.28;0.20;;;11.20;72.00;;;;;;5034155;28;19975;-76
2023/01/02 04:31:29;;;;;;;0.63;0.38;;;11.10;71.60;;;;;;5003757;28;20467;-77
2023/01/02 04:33:59;;;;;;;0.32;0.20;;;11.00;71.70;;;;;;5034227;28;20033;-77
2023/01/02 04:36:25;;;;;;;0.45;0.20;;;11.00;71.70;;;;;;4989882;28;20064;-79
2023/01/02 04:38:51;;;;;;;0.20;0.10;;;11.00;71.40;;;;;;5016380;28;20738;-78
2023/01/02 04:41:25;;;;;;;0.25;0.20;;;10.90;71.10;;;;;;5017431;28;20779;-77
2023/01/02 04:43:55;;;;;;;0.38;0.20;;;10.90;71.10;;;;;;5016215;28;20057;-78
2023/01/02 04:46:22;;;;;;;1.20;0.20;;;10.90;71.30;;;;;;5018940;28;20033;-78
2023/01/02 04:48:48;;;;;;;1.27;0.20;;;10.80;71.20;;;;;;5025539;28;20045;-78
2023/01/02 04:51:14;;;;;;;1.08;0.17;;;10.80;71.40;;;;;;5015209;28;20030;-78
2023/01/02 04:53:40;;;;;;;0.77;0.30;;;10.80;71.20;;;;;;5030120;28;20037;-77
2023/01/02 04:56:08;;;;;;;0.20;0.20;;;10.80;70.90;;;;;;5032178;28;20071;-77
2023/01/02 04:58:34;;;;;;;0.95;0.10;;;10.70;71.00;;;;;;5016401;28;20420;-77
2023/01/02 05:01:00;;;;;;;1.45;0.20;;;10.70;71.00;;;;;;4997127;28;20041;-78
2023/01/02 05:03:26;;;;;;;0.50;0.10;;;10.70;70.80;;;;;;5034139;28;20427;-76
2023/01/02 05:05:59;;;;;;;0.40;0.20;;;10.70;70.90;;;;;;5067065;28;20040;-76
2023/01/02 05:08:27;;;;;;;0.30;0.20;;;10.60;70.80;;;;;;5036457;28;20041;-77
2023/01/02 05:10:53;;;;;;;0.32;0.30;;;10.60;71.00;;;;;;5068306;28;20135;-77
2023/01/02 05:13:19;;;;;;;0.82;0.20;;;10.60;71.40;;;;;;5036059;28;20041;-76
2023/01/02 05:15:44;;;;;;;0.60;0.20;;;10.50;71.20;;;;;;5037769;28;20051;-77
2023/01/02 05:18:10;;;;;;;1.85;0.32;;;10.60;71.30;;;;;;5053698;28;20049;-76
2023/01/02 05:20:36;;;;;;;1.08;0.30;;;10.50;71.30;;;;;;5035225;28;20453;-77
2023/01/02 05:25:47;;;;;;;1.38;0.30;;;10.50;70.80;;;;;;5050958;28;20037;-77
2023/01/02 05:28:12;;;;;;;0.73;0.30;;;10.50;70.70;;;;;;5035648;28;20446;-76
2023/01/02 05:30:38;;;;;;;0.73;0.20;;;10.40;70.70;;;;;;5035567;28;20046;-77
2023/01/02 05:33:04;;;;;;;0.32;0.32;;;10.40;70.30;;;;;;5022726;28;20040;-77
2023/01/02 05:35:30;;;;;;;0.57;0.38;;;10.40;70.40;;;;;;5036155;28;20056;-79
2023/01/02 05:37:56;;;;;;;0.47;0.35;;;10.40;71.40;;;;;;5035081;28;20154;-76
2023/01/02 05:40:22;;;;;;;1.08;0.47;;;10.40;71.20;;;;;;5010561;28;20119;-76
2023/01/02 05:42:48;;;;;;;1.98;0.20;;;10.40;70.70;;;;;;5035955;28;20034;-77
2023/01/02 05:45:14;;;;;;;1.02;0.38;;;10.30;70.00;;;;;;5036125;28;20028;-78
2023/01/02 05:47:40;;;;;;;2.75;0.68;;;10.30;70.10;;;;;;5034075;28;20390;-77
2023/01/02 05:50:06;;;;;;;1.45;0.65;;;10.30;70.10;;;;;;5036250;28;20036;-77
2023/01/02 05:52:32;;;;;;;0.80;0.40;;;10.30;69.90;;;;;;5036739;28;20511;-77
2023/01/02 05:54:58;;;;;;;0.70;0.30;;;10.20;69.70;;;;;;5050029;28;20081;-75
2023/01/02 05:57:25;;;;;;;1.33;0.60;;;10.20;69.70;;;;;;5044578;28;20041;-77
2023/01/02 05:59:50;;;;;;;1.35;0.30;;;10.20;69.80;;;;;;5034535;28;20064;-77
2023/01/02 06:02:16;;;;;;;0.77;0.40;;;10.20;69.50;;;;;;5035577;28;20029;-77
2023/01/02 06:04:42;;;;;;;2.80;0.40;;;10.20;69.60;;;;;;5035079;28;20033;-77
2023/01/02 06:07:08;;;;;;;1.85;0.50;;;10.10;69.50;;;;;;5034493;28;20504;-77
2023/01/02 06:09:34;;;;;;;0.65;0.30;;;10.10;69.40;;;;;;5035266;28;20567;-78
2023/01/02 06:12:02;;;;;;;1.85;0.60;;;10.10;69.40;;;;;;5035598;28;20033;-77
2023/01/02 06:14:28;;;;;;;0.50;0.30;;;10.10;69.20;;;;;;5033558;28;20092;-77
2023/01/02 06:16:54;;;;;;;0.90;0.30;;;10.10;69.10;;;;;;5036957;28;20033;-77
2023/01/02 06:19:20;;;;;;;0.90;0.43;;;10.10;69.20;;;;;;5038507;28;20487;-78
2023/01/02 06:21:46;;;;;;;0.65;0.50;;;10.00;68.90;;;;;;5039817;28;20060;-79
2023/01/02 06:24:12;;;;;;;1.10;0.60;;;10.00;68.70;;;;;;5042877;28;20137;-78
2023/01/02 06:26:38;;;;;;;0.65;0.47;;;10.10;68.80;;;;;;5021548;28;20511;-77
2023/01/02 06:29:04;;;;;;;0.57;0.32;;;10.00;68.50;;;;;;5036326;28;20041;-78
2023/01/02 06:31:32;;;;;;;0.80;0.40;;;10.00;68.90;;;;;;5039571;28;20053;-77
2023/01/02 06:33:59;;;;;;;1.95;0.40;;;10.00;69.20;;;;;;5029999;28;20029;-76
2023/01/02 06:36:28;;;;;;;1.00;0.60;;;10.00;68.70;;;;;;5038902;28;20037;-76
2023/01/02 06:38:54;;;;;;;1.48;0.40;;;10.00;68.80;;;;;;5038971;28;20526;-76
2023/01/02 06:41:20;;;;;;;1.38;0.55;;;10.00;68.80;;;;;;5020474;28;20045;-77
2023/01/02 06:43:48;;;;;;;0.95;0.30;;;9.90;69.30;;;;;;5039127;28;20041;-77
2023/01/02 06:46:16;;;;;;;0.45;0.30;;;10.00;69.50;;;;;;5024113;28;20443;-77
2023/01/02 06:48:43;;;;;;;1.02;0.35;;;10.00;70.20;;;;;;5036824;28;20132;-77
2023/01/02 06:51:12;;;;;;;1.27;0.40;;;10.00;70.20;;;;;;5019468;28;20516;-77
2023/01/02 06:53:40;;;;;;;0.73;0.40;;;10.00;70.00;;;;;;5068540;28;20478;-77
2023/01/02 06:56:07;;;;;;;0.47;0.30;;;10.00;70.10;;;;;;5038596;28;20060;-78
2023/01/02 06:58:35;;;;;;;0.20;0.20;;;10.00;70.20;;;;;;5070529;28;20423;-79
2023/01/02 07:01:21;;;;;;;0.40;0.20;;;10.00;69.50;;;;;;5038361;28;20120;-79
2023/01/02 07:03:48;;;;;;;1.75;0.40;;;10.00;69.30;;;;;;5054184;28;20033;-79
2023/01/02 07:06:16;;;;;;;1.45;0.40;;;10.00;69.50;;;;;;5058357;28;20035;-80
2023/01/02 07:08:43;;;;;;;2.67;0.40;;;10.00;69.10;;;;;;5036746;28;20076;-78
2023/01/02 07:11:13;;;;;;;0.98;0.30;;;10.00;69.30;;;;;;5053714;28;20041;-79
2023/01/02 07:13:40;;;;;;;1.33;0.65;;;10.00;69.90;;;;;;5037539;28;20040;-76
2023/01/02 07:16:10;;;;;;;1.60;0.30;;;10.00;70.00;;;;;;5038535;28;20025;-79
2023/01/02 07:18:36;;;;;;;1.35;0.30;;;10.00;69.40;;;;;;5021818;28;20033;-79
2023/01/02 07:21:03;;;;;;;0.57;0.30;;;10.00;68.90;;;;;;5038652;28;20037;-81
2023/01/02 07:23:29;;;;;;;1.30;0.60;;;10.00;68.80;;;;;;5020145;28;20053;-77
2023/01/02 07:25:57;;;;;;;1.20;0.35;;;10.00;68.50;;;;;;5036189;28;20029;-80
2023/01/02 07:28:26;;;;;;;1.05;0.30;;;10.00;68.10;;;;;;5036198;28;20033;-76
2023/01/02 07:30:56;;;;;;;1.67;0.32;;;10.00;67.90;;;;;;5068848;28;20049;-74
2023/01/02 07:33:22;;;;;;;0.90;0.40;;;10.00;67.60;;;;;;5035245;28;20086;-75
2023/01/02 07:35:48;;;;;;;2.83;0.47;;;10.00;67.70;;;;;;5034807;28;20444;-73
2023/01/02 07:38:14;;;;;;;0.50;0.30;;;10.00;69.70;;;;;;5035296;28;20124;-74
2023/01/02 07:40:40;;;;;;;1.17;0.47;;;10.00;69.90;;;;;;5019764;28;20108;-74
2023/01/02 07:43:06;;;;;;;0.75;0.40;;;10.00;69.00;;;;;;5046656;28;20089;-73
2023/01/02 07:45:33;;;;;;;1.60;0.40;;;10.00;68.00;;;;;;5033273;28;20128;-73
2023/01/02 07:48:00;;;;;;;0.77;0.40;;;10.00;67.00;;;;;;5044842;28;20037;-79
2023/01/02 07:50:26;;;;;;;0.95;0.55;;;10.00;66.20;;;;;;5078267;28;20598;-80
2023/01/02 07:52:52;;;;;;;1.00;0.32;;;9.90;65.90;;;;;;5076775;28;20420;-74
2023/01/02 07:55:18;;;;;;;1.08;0.40;;;9.90;65.90;;;;;;5051950;28;20037;-74
2023/01/02 07:57:46;;;;;;;1.10;0.60;;;9.90;65.40;;;;;;5041048;28;20045;-72
2023/01/02 08:00:13;;;;;;;3.08;0.55;;;9.90;65.30;;;;;;5050850;28;20052;-75
2023/01/02 08:02:40;;;;;;;1.25;0.70;;;9.90;65.80;;;;;;5042548;28;20056;-73
2023/01/02 08:05:06;;;;;;;1.42;0.85;;;9.90;66.30;;;;;;5050990;28;20067;-74
2023/01/02 08:07:32;;;;;;;1.35;0.63;;;9.90;66.30;;;;;;5044542;28;20082;-74
2023/01/02 08:09:58;;;;;;;1.13;0.70;;;9.90;66.50;;;;;;5009649;28;20034;-74
2023/01/02 08:12:24;;;;;;;1.83;0.77;;;9.90;66.40;;;;;;5036195;28;20031;-75
2023/01/02 08:14:49;;;;;;;1.05;0.60;;;10.00;66.40;;;;;;5034047;28;20033;-78
2023/01/02 08:17:17;;;;;;;1.42;0.60;;;10.00;66.30;;;;;;5034744;28;20033;-78
2023/01/02 08:19:43;;;;;;;2.05;0.50;;;10.00;66.10;;;;;;5035014;28;20033;-88
2023/01/02 08:22:09;;;;;;;1.67;0.70;;;10.00;66.20;;;;;;5032411;28;20060;-87
2023/01/02 08:24:35;;;;;;;1.92;0.57;;;10.00;66.00;;;;;;5030943;28;20049;-85
2023/01/02 08:27:00;;;;;;;0.90;0.40;;;10.00;65.70;;;;;;5065882;28;20036;-84
2023/01/02 08:29:26;;;;;;;1.58;0.70;;;10.00;65.50;;;;;;5050107;28;20106;-82
2023/01/02 08:31:52;;;;;;;2.80;0.73;;;10.00;65.50;;;;;;5018260;28;20129;-84
2023/01/02 08:34:18;;;;;;;1.65;0.50;;;10.00;65.10;;;;;;5036159;28;20099;-83
2023/01/02 08:36:44;;;;;;;1.08;0.50;;;10.10;64.80;;;;;;5018390;28;20184;-78
2023/01/02 08:39:10;;;;;;;1.83;0.50;;;10.00;64.60;;;;;;5033748;28;20089;-76
2023/01/02 08:41:39;;;;;;;0.47;0.45;;;10.10;64.20;;;;;;5033901;28;20048;-79
2023/01/02 08:44:06;;;;;;;1.85;0.68;;;10.10;64.30;;;;;;5020719;28;20052;-77
2023/01/02 08:46:33;;;;;;;3.42;0.60;;;10.00;63.60;;;;;;5032006;28;20140;-78
2023/01/02 08:48:59;;;;;;;3.05;0.60;;;10.00;63.80;;;;;;5032332;28;20037;-77
2023/01/02 08:51:25;;;;;;;0.95;0.60;;;10.10;64.10;;;;;;5035263;28;20048;-76
2023/01/02 08:53:52;;;;;;;1.50;0.50;;;10.10;64.20;;;;;;5035979;28;20045;-74
2023/01/02 08:56:26;;;;;;;2.28;0.73;;;10.10;64.00;;;;;;5033921;28;20029;-74
2023/01/02 08:59:01;;;;;;;2.05;0.63;;;10.10;64.20;;;;;;5033727;28;20060;-77
2023/01/02 09:01:29;;;;;;;2.15;0.50;;;10.10;63.90;;;;;;5035558;28;20056;-77
2023/01/02 09:03:56;;;;;;;2.15;0.73;;;10.10;63.80;;;;;;5034149;28;20751;-78
2023/01/02 09:06:24;;;;;;;1.42;0.60;;;10.10;64.10;;;;;;5033162;28;20121;-79
2023/01/02 09:08:52;;;;;;;1.15;0.70;;;10.10;63.40;;;;;;5034894;28;20076;-78
2023/01/02 09:11:27;;;;;;;0.88;0.50;;;10.10;63.60;;;;;;4992668;28;20746;-80
2023/01/02 09:13:53;;;;;;;2.08;0.65;;;10.00;63.20;;;;;;5034839;28;20048;-81
2023/01/02 09:16:20;;;;;;;1.85;1.10;;;10.10;63.40;;;;;;5053684;28;20093;-80
2023/01/02 09:18:46;;;;;;;3.85;0.80;;;10.00;63.40;;;;;;5059920;28;20051;-79
2023/01/02 09:21:12;;;;;;;2.15;0.60;;;10.10;63.60;;;;;;5058589;28;20041;-77
2023/01/02 09:23:38;;;;;;;3.05;0.90;;;10.00;63.60;;;;;;5038059;28;20060;-78
2023/01/02 09:26:06;;;;;;;0.90;0.70;;;10.00;63.60;;;;;;5048993;28;20069;-81
2023/01/02 09:28:34;;;;;;;3.70;0.90;;;10.00;63.10;;;;;;5025503;28;20439;-78
2023/01/02 09:31:07;;;;;;;2.05;0.60;;;10.00;63.30;;;;;;5034031;28;20025;-76
2023/01/02 09:33:33;;;;;;;2.05;0.90;;;10.00;62.90;;;;;;5034088;28;20030;-77
2023/01/02 09:36:01;;;;;;;2.63;0.70;;;10.00;63.40;;;;;;5033557;28;20121;-77
2023/01/02 09:38:27;;;;;;;2.35;0.80;;;9.90;64.40;;;;;;5034587;28;20095;-76
2023/01/02 09:40:54;;;;;;;3.00;1.80;;;10.00;65.40;;;;;;5034981;28;20038;-78
2023/01/02 09:43:31;;;;;;;1.02;0.70;;;10.00;65.70;;;;;;5033840;28;20508;-85
2023/01/02 09:46:00;;;;;;;3.35;0.80;;;10.00;65.30;;;;;;5005990;28;20040;-78
2023/01/02 09:48:31;;;;;;;3.83;0.80;;;10.00;65.30;;;;;;5033645;28;20040;-78
2023/01/02 09:50:57;;;;;;;2.58;0.85;;;10.00;65.90;;;;;;5035859;28;20033;-77
2023/01/02 09:53:24;;;;;;;2.03;0.80;;;10.00;66.40;;;;;;5037872;28;20037;-86
2023/01/02 09:56:00;;;;;;;2.88;1.10;;;10.00;66.50;;;;;;5037023;28;20061;-74
2023/01/02 09:58:39;;;;;;;3.80;1.20;;;9.90;66.30;;;;;;5037141;28;20040;-74
2023/01/02 10:01:12;;;;;;;3.72;1.17;;;10.00;66.10;;;;;;5036447;28;20029;-76
2023/01/02 10:03:48;;;;;;;4.07;1.20;;;9.90;65.00;;;;;;5074233;28;20052;-77
2023/01/02 10:06:21;;;;;;;2.80;1.35;;;9.90;66.20;;;;;;5038073;28;20033;-78
2023/01/02 10:09:05;;;;;;;5.30;1.98;;;10.00;68.20;;;;;;5038652;28;20047;-77
2023/01/02 10:12:02;;;;;;;6.13;2.03;;;10.00;68.40;;;;;;5021483;28;20440;-77
2023/01/02 10:14:48;;;;;;;3.70;1.48;;;10.10;69.50;;;;;;5038641;28;20042;-77
2023/01/02 10:17:16;;;;;;;;;;;10.10;71.50;;;;;;5037221;28;20101;-77
2023/01/02 10:20:05;;;;;;;4.03;2.03;;;10.10;72.40;;;;;;5036082;28;20264;-77
2023/01/02 10:22:42;;;;;;;8.75;1.90;;;10.20;72.70;;;;;;5035552;28;20103;-77
2023/01/02 10:25:45;;;;;;;4.45;1.60;;;10.20;71.90;;;;;;5038392;28;20124;-76
2023/01/02 10:28:38;;;;;;;3.90;1.40;;;10.20;71.20;;;;;;5038851;28;20045;-76
2023/01/02 10:31:13;;;;;;;2.10;1.15;;;10.20;71.20;;;;;;5037312;28;20505;-76
2023/01/02 10:33:50;;;;;;;5.23;1.37;;;10.30;71.40;;;;;;5069654;28;20511;-74
2023/01/02 10:36:27;;;;;;;3.00;1.30;;;10.30;71.10;;;;;;5038081;28;20459;-76
2023/01/02 10:39:04;;;;;;;4.20;1.50;;;10.30;70.80;;;;;;5036485;28;20037;-77
2023/01/02 10:41:32;;;;;;;5.35;1.63;;;10.30;70.90;;;;;;5037776;28;20040;-75
2023/01/02 10:44:05;;;;;;;2.30;1.20;;;10.30;70.80;;;;;;5052488;28;20090;-77
2023/01/02 10:46:36;;;;;;;4.53;1.20;;;10.40;70.90;;;;;;5036151;28;20424;-76
2023/01/02 10:49:05;;;;;;;1.85;0.88;;;10.40;70.60;;;;;;5037138;28;20071;-76
2023/01/02 10:51:33;;;;;;;3.35;1.30;;;10.40;70.00;;;;;;5037758;28;20038;-76
2023/01/02 10:54:02;;;;;;;4.22;1.15;;;10.40;70.20;;;;;;5036926;28;20346;-75
2023/01/02 10:56:31;;;;;;;1.83;1.08;;;10.40;70.50;;;;;;5036816;28;20086;-77
2023/01/02 10:58:58;;;;;;;2.97;1.30;;;10.40;70.60;;;;;;5036932;28;20095;-77
2023/01/02 11:01:24;;;;;;;2.88;1.10;;;10.50;70.60;;;;;;5052227;28;20029;-77
2023/01/02 11:04:12;;;;;;;4.63;1.10;;;10.50;71.10;;;;;;5037271;28;20450;-77
2023/01/02 11:07:22;;;;;;;2.95;0.80;;;10.50;70.70;;;;;;5037181;28;20025;-77
2023/01/02 11:09:54;;;;;;;3.47;1.02;;;10.50;70.00;;;;;;5024041;28;20041;-77
2023/01/02 11:12:20;;;;;;;1.65;0.90;;;10.50;69.60;;;;;;5023046;28;20045;-77
2023/01/02 11:14:46;;;;;;;1.70;0.75;;;10.50;69.10;;;;;;5007467;28;20038;-77
2023/01/02 11:17:16;;;;;;;2.55;0.90;;;10.60;69.10;;;;;;5023928;28;20136;-77
2023/01/02 11:19:47;;;;;;;1.80;0.55;;;10.50;69.10;;;;;;5022133;28;20131;-78
2023/01/02 11:22:15;;;;;;;2.08;0.90;;;10.60;69.20;;;;;;5024751;28;20056;-77
2023/01/02 11:25:01;;;;;;;3.45;0.80;;;10.60;69.30;;;;;;5008524;28;20147;-77
2023/01/02 11:27:35;;;;;;;1.73;0.50;;;10.50;69.50;;;;;;5024393;28;20062;-77
2023/01/02 11:30:04;;;;;;;2.08;0.60;;;10.60;69.50;;;;;;5022911;28;20041;-76
2023/01/02 11:32:40;;;;;;;3.22;1.20;;;10.60;68.90;;;;;;5022189;28;20509;-78
2023/01/02 11:35:32;;;;;;;3.40;1.00;;;10.60;68.90;;;;;;5024081;28;20072;-76
2023/01/02 11:38:00;;;;;;;1.98;0.63;;;10.60;69.10;;;;;;5022976;28;20044;-76
2023/01/02 11:40:29;;;;;;;2.17;0.70;;;10.60;68.60;;;;;;5006030;28;20033;-76
2023/01/02 11:45:46;;;;;;;2.58;1.33;;;10.60;68.30;;;;;;5033248;28;20053;-76
2023/01/02 11:48:17;;;;;;;2.17;0.82;;;10.60;69.50;;;;;;5035708;28;20144;-76
2023/01/02 11:50:43;;;;;;;5.28;0.98;;;10.60;69.10;;;;;;5035102;28;20033;-76
2023/01/02 11:53:12;;;;;;;1.40;0.77;;;10.60;69.10;;;;;;5036780;28;20036;-78
2023/01/02 11:55:53;;;;;;;0.98;0.70;;;10.60;68.50;;;;;;5036350;28;20037;-76
2023/01/02 11:58:29;;;;;;;1.85;0.70;;;10.60;67.70;;;;;;5022799;28;20029;-75
2023/01/02 12:01:16;;;;;;;1.85;0.77;;;10.60;66.90;;;;;;5067614;28;20037;-76
2023/01/02 12:03:42;;;;;;;1.48;0.70;;;10.60;67.20;;;;;;5048609;28;20032;-75
2023/01/02 12:06:17;;;;;;;1.73;0.80;;;10.60;67.40;;;;;;5047860;28;20045;-77
2023/01/02 12:09:04;;;;;;;1.05;0.60;;;10.60;66.90;;;;;;5062344;28;20055;-73
2023/01/02 12:11:49;;;;;;;0.68;0.55;;;10.60;66.60;;;;;;5062579;28;20085;-74
2023/01/02 12:14:43;;;;;;;1.40;0.77;;;10.50;66.70;;;;;;5057421;28;20082;-75
2023/01/02 12:17:25;;;;;;;1.40;0.73;;;10.50;67.30;;;;;;5048615;28;20037;-77
2023/01/02 12:20:24;;;;;;;0.95;0.57;;;10.50;67.30;;;;;;5037618;28;20424;-78
2023/01/02 12:23:11;;;;;;;3.42;0.70;;;10.50;68.10;;;;;;5035631;28;20396;-76
2023/01/02 12:25:48;;;;;;;1.58;0.50;;;10.50;67.80;;;;;;5036581;28;20041;-76
2023/01/02 12:28:39;;;;;;;1.48;0.60;;;10.50;67.60;;;;;;5067305;28;20033;-76
2023/01/02 12:31:40;;;;;;;1.85;0.75;;;10.50;66.90;;;;;;5049408;28;20040;-75
2023/01/02 12:34:24;;;;;;;2.15;0.68;;;10.50;66.40;;;;;;5026299;28;20043;-77
2023/01/02 12:37:11;;;;;;;1.58;0.60;;;10.50;66.30;;;;;;5032680;28;20203;-76
2023/01/02 12:40:03;;;;;;;1.90;0.70;;;10.50;66.60;;;;;;4999791;28;20025;-78
2023/01/02 12:42:58;;;;;;;2.28;0.50;;;10.50;66.70;;;;;;5032109;28;20029;-79
2023/01/02 12:45:34;;;;;;;2.55;0.82;;;10.50;66.80;;;;;;5032034;28;20516;-79
2023/01/02 12:48:08;;;;;;;0.73;0.50;;;10.50;67.00;;;;;;5028757;28;20817;-75
2023/01/02 12:50:37;;;;;;;1.10;0.77;;;10.50;66.60;;;;;;5011225;28;20030;-77
2023/01/02 12:53:19;;;;;;;2.30;0.77;;;10.50;66.10;;;;;;5027553;28;20197;-76
2023/01/02 12:56:05;;;;;;;2.35;0.70;;;10.50;65.70;;;;;;5026405;28;20029;-77
2023/01/02 12:58:39;;;;;;;1.52;0.77;;;10.50;65.80;;;;;;5031358;28;20165;-77
2023/01/02 13:01:25;;;;;;;2.00;0.70;;;10.40;65.80;;;;;;5026092;28;20072;-77
2023/01/02 13:04:09;;;;;;;1.30;0.60;;;10.50;66.20;;;;;;5029798;28;20087;-77
2023/01/02 13:06:50;;;;;;;1.63;0.73;;;10.40;65.70;;;;;;5031550;28;20033;-77
2023/01/02 13:09:38;;;;;;;1.60;0.90;;;10.40;65.50;;;;;;5025753;28;20457;-77
2023/01/02 13:12:16;;;;;;;1.80;0.93;;;10.40;65.60;;;;;;5017129;28;20037;-77
2023/01/02 13:14:54;;;;;;;2.10;0.70;;;10.30;65.50;;;;;;5034155;28;20516;-77
2023/01/02 13:17:38;;;;;;;3.70;0.80;;;10.30;65.60;;;;;;5033380;28;20045;-76
2023/01/02 13:20:32;;;;;;;2.28;0.80;;;10.30;65.40;;;;;;5005961;28;20116;-77